Galesburg, North Dakota
Current Conditions -  °F | °C
As of 3:35 AM on Friday 31 Oct 2014 (Local Time) from KBAC Reporting Station
Clear Clear  
Wind Chill:   Ceiling: Unl
Heat Index: 16°   Visibility: 10mi
Dew Point: 16°   Wind: 7mph
Humidity: 100%   Direction: 350°N
Pressure: 30.58"   Gusts: NA
Location:  47.27°N, 97.41°W
Report Text: KBAC 310835Z AUTO 35006KT 10SM CLR M09/M09 A3058 RMK AO2
Loading
Personal Weather Stations






























Interactive Weather Map
Tropical Storm Tracking
New forecast layout! Learn more

10-Day Weather Forecast

Advertisements
Track Severe Weather on mobile